createdAt,value
2023-03-21T00:00:45.578Z,7.46
2023-03-21T00:03:24.667Z,7.44
2023-03-21T00:05:55.501Z,7.44
2023-03-21T00:08:28.262Z,7.44
2023-03-21T00:10:58.874Z,7.44
2023-03-21T00:13:31.957Z,7.43
2023-03-21T00:16:10.216Z,7.41
2023-03-21T00:18:54.801Z,7.40
2023-03-21T00:24:16.663Z,7.38
2023-03-21T00:26:46.003Z,7.36
2023-03-21T00:29:16.092Z,7.35
2023-03-21T00:31:44.986Z,7.33
2023-03-21T00:34:14.408Z,7.31
2023-03-21T00:36:43.360Z,7.30
2023-03-21T00:39:13.599Z,7.30
2023-03-21T00:41:43.595Z,7.29
2023-03-21T00:44:15.120Z,7.28
2023-03-21T00:47:00.553Z,7.29
2023-03-21T00:49:37.936Z,7.28
2023-03-21T00:52:18.331Z,7.30
2023-03-21T00:54:54.485Z,7.30
2023-03-21T00:57:37.586Z,7.30
2023-03-21T01:00:11.392Z,7.28
2023-03-21T01:03:08.592Z,7.28
2023-03-21T01:06:01.716Z,7.24
2023-03-21T01:08:44.568Z,7.24
2023-03-21T01:11:22.618Z,7.25
2023-03-21T01:14:04.287Z,7.24
2023-03-21T01:16:40.684Z,7.23
2023-03-21T01:19:23.906Z,7.23
2023-03-21T01:22:02.274Z,7.22
2023-03-21T01:24:32.477Z,7.22
2023-03-21T01:27:03.482Z,7.21
2023-03-21T01:29:32.652Z,7.20
2023-03-21T01:32:04.526Z,7.19
2023-03-21T01:34:33.384Z,7.16
2023-03-21T01:37:06.276Z,7.14
2023-03-21T01:39:41.876Z,7.14
2023-03-21T01:42:14.024Z,7.10
2023-03-21T01:44:56.737Z,7.07
2023-03-21T01:47:27.057Z,7.04
2023-03-21T01:50:15.241Z,7.01
2023-03-21T01:53:22.202Z,6.99
2023-03-21T01:55:51.415Z,6.96
2023-03-21T01:58:44.717Z,6.95
2023-03-21T02:01:45.603Z,6.93
2023-03-21T02:04:16.380Z,6.94
2023-03-21T02:06:52.380Z,6.95
2023-03-21T02:09:45.212Z,6.92
2023-03-21T02:12:18.608Z,6.92
2023-03-21T02:14:49.942Z,6.92
2023-03-21T02:17:49.600Z,6.90
2023-03-21T02:21:01.104Z,6.88
2023-03-21T02:24:09.447Z,6.84
2023-03-21T02:27:04.077Z,6.81
2023-03-21T02:30:08.768Z,6.81
2023-03-21T02:33:09.422Z,6.80
2023-03-21T02:35:56.785Z,6.79
2023-03-21T02:38:36.116Z,6.82
2023-03-21T02:41:18.160Z,6.83
2023-03-21T02:43:56.532Z,6.84
2023-03-21T02:46:43.948Z,6.85
2023-03-21T02:49:22.201Z,6.87
2023-03-21T02:51:51.816Z,6.88
2023-03-21T02:54:41.904Z,6.89
2023-03-21T02:57:19.187Z,6.90
2023-03-21T02:59:55.435Z,6.91
2023-03-21T03:02:32.985Z,6.90
2023-03-21T03:05:20.697Z,6.90
2023-03-21T03:08:06.613Z,6.91
2023-03-21T03:10:56.305Z,6.93
2023-03-21T03:13:43.824Z,6.91
2023-03-21T03:16:27.002Z,6.91
2023-03-21T03:18:58.095Z,6.91
2023-03-21T03:21:32.503Z,6.91
2023-03-21T03:24:09.383Z,6.90
2023-03-21T03:26:45.440Z,6.89
2023-03-21T03:29:16.674Z,6.88
2023-03-21T03:31:51.130Z,6.88
2023-03-21T03:34:21.518Z,6.87
2023-03-21T03:36:56.445Z,6.84
2023-03-21T03:39:33.602Z,6.84
2023-03-21T03:42:18.523Z,6.83
2023-03-21T03:44:59.296Z,6.82
2023-03-21T03:47:37.969Z,6.82
2023-03-21T03:50:18.185Z,6.80
2023-03-21T03:52:56.516Z,6.79
2023-03-21T03:55:33.829Z,6.78
2023-03-21T03:58:21.731Z,6.76
2023-03-21T04:00:56.220Z,6.77
2023-03-21T04:03:25.666Z,6.77
2023-03-21T04:05:54.894Z,6.77
2023-03-21T04:08:24.086Z,6.76
2023-03-21T04:10:55.640Z,6.76
2023-03-21T04:13:25.515Z,6.75
2023-03-21T04:16:12.283Z,6.74
2023-03-21T04:18:41.992Z,6.74
2023-03-21T04:21:14.052Z,6.76
2023-03-21T04:23:43.187Z,6.75
2023-03-21T04:26:12.797Z,6.74
2023-03-21T04:28:46.131Z,6.75
2023-03-21T04:31:35.453Z,6.75
2023-03-21T04:34:12.037Z,6.76
2023-03-21T04:36:45.330Z,6.75
2023-03-21T04:39:15.062Z,6.75
2023-03-21T04:41:46.312Z,6.75
2023-03-21T04:44:18.476Z,6.75
2023-03-21T04:46:51.578Z,6.76
2023-03-21T04:49:24.396Z,6.75
2023-03-21T04:51:55.942Z,6.73
2023-03-21T04:54:26.772Z,6.74
2023-03-21T04:57:00.179Z,6.74
2023-03-21T04:59:29.564Z,6.74
2023-03-21T05:01:59.222Z,6.75
2023-03-21T05:04:30.474Z,6.77
2023-03-21T05:07:03.279Z,6.78
2023-03-21T05:09:32.364Z,6.78
2023-03-21T05:12:01.965Z,6.79
2023-03-21T05:14:32.295Z,6.79
2023-03-21T05:17:04.767Z,6.78
2023-03-21T05:19:34.959Z,6.78
2023-03-21T05:22:08.012Z,6.79
2023-03-21T05:24:38.674Z,6.82
2023-03-21T05:27:08.801Z,6.84
2023-03-21T05:29:42.141Z,6.85
2023-03-21T05:32:12.388Z,6.84
2023-03-21T05:34:41.323Z,6.86
2023-03-21T05:37:12.276Z,6.87
2023-03-21T05:39:47.774Z,6.89
2023-03-21T05:42:23.511Z,6.87
2023-03-21T05:44:53.865Z,6.89
2023-03-21T05:47:28.154Z,6.90
2023-03-21T05:49:57.354Z,6.94
2023-03-21T05:52:28.112Z,6.95
2023-03-21T05:54:56.961Z,6.96
2023-03-21T05:57:28.356Z,6.96
2023-03-21T06:00:03.786Z,6.97
2023-03-21T06:02:45.336Z,7.00
2023-03-21T06:05:43.315Z,6.98
2023-03-21T06:08:19.422Z,6.99
2023-03-21T06:10:48.403Z,6.99
2023-03-21T06:13:17.592Z,7.02
2023-03-21T06:15:46.513Z,7.04
2023-03-21T06:18:19.005Z,7.06
2023-03-21T06:21:08.118Z,7.09
2023-03-21T06:23:37.066Z,7.13
2023-03-21T06:26:09.330Z,7.15
2023-03-21T06:28:39.771Z,7.18
2023-03-21T06:31:09.073Z,7.21
2023-03-21T06:33:38.208Z,7.23
2023-03-21T06:36:12.996Z,7.25
2023-03-21T06:38:42.038Z,7.27
2023-03-21T06:41:12.798Z,7.27
2023-03-21T06:43:48.690Z,7.25
2023-03-21T06:46:17.807Z,7.24
2023-03-21T06:48:46.935Z,7.25
2023-03-21T06:51:16.636Z,7.25
2023-03-21T06:53:58.681Z,7.27
2023-03-21T06:56:41.107Z,7.30
2023-03-21T06:59:12.139Z,7.29
2023-03-21T07:01:53.057Z,7.31
2023-03-21T07:04:22.741Z,7.36
2023-03-21T07:06:51.881Z,7.42
2023-03-21T07:09:27.494Z,7.49
2023-03-21T07:11:59.101Z,7.52
2023-03-21T07:14:34.528Z,7.51
2023-03-21T07:17:03.631Z,7.52
2023-03-21T07:19:32.550Z,7.53
2023-03-21T07:22:02.388Z,7.57
2023-03-21T07:24:31.461Z,7.62
2023-03-21T07:27:01.120Z,7.65
2023-03-21T07:29:30.016Z,7.67
2023-03-21T07:32:02.007Z,7.69
2023-03-21T07:34:33.290Z,7.74
2023-03-21T07:37:06.486Z,7.80
2023-03-21T07:39:35.914Z,7.89
2023-03-21T07:42:05.157Z,7.97
2023-03-21T07:44:39.898Z,8.06
2023-03-21T07:47:09.103Z,8.15
2023-03-21T07:49:38.223Z,8.28
2023-03-21T07:52:07.371Z,8.36
2023-03-21T07:54:36.370Z,8.39
2023-03-21T07:57:05.276Z,8.44
2023-03-21T07:59:34.057Z,8.47
2023-03-21T08:02:03.015Z,8.52
2023-03-21T08:04:35.069Z,8.61
2023-03-21T08:07:03.960Z,8.72
2023-03-21T08:09:35.680Z,8.73
2023-03-21T08:12:07.792Z,8.76
2023-03-21T08:14:37.181Z,8.83
2023-03-21T08:17:06.461Z,8.90
2023-03-21T08:19:36.942Z,9.00
2023-03-21T08:22:06.263Z,9.08
2023-03-21T08:24:35.106Z,9.15
2023-03-21T08:27:04.013Z,9.17
2023-03-21T08:29:39.869Z,9.25
2023-03-21T08:32:08.859Z,9.32
2023-03-21T08:34:37.669Z,9.37
2023-03-21T08:37:06.580Z,9.43
2023-03-21T08:39:35.605Z,9.56
2023-03-21T08:42:05.137Z,9.77
2023-03-21T08:44:35.303Z,9.92
2023-03-21T08:47:04.185Z,10.03
2023-03-21T08:49:33.042Z,10.08
2023-03-21T08:52:02.427Z,10.14
2023-03-21T08:54:31.775Z,10.13
2023-03-21T08:57:01.440Z,10.03
2023-03-21T08:59:30.422Z,9.93
2023-03-21T09:02:02.925Z,9.96
2023-03-21T09:04:32.573Z,10.04
2023-03-21T09:07:02.398Z,10.13
2023-03-21T09:09:32.068Z,10.16
2023-03-21T09:12:03.503Z,10.15
2023-03-21T09:14:35.476Z,10.08
2023-03-21T09:17:04.458Z,10.06
2023-03-21T09:19:35.996Z,10.09
2023-03-21T09:22:04.854Z,10.08
2023-03-21T09:24:35.015Z,10.11
2023-03-21T09:27:03.935Z,10.09
2023-03-21T09:29:33.631Z,10.17
2023-03-21T09:32:03.546Z,10.27
2023-03-21T09:34:32.826Z,10.27
2023-03-21T09:37:02.921Z,10.19
2023-03-21T09:39:32.981Z,10.07
2023-03-21T09:42:18.832Z,9.98
2023-03-21T09:45:00.870Z,9.88
2023-03-21T09:47:37.247Z,9.83
2023-03-21T09:50:17.394Z,9.89
2023-03-21T09:52:50.136Z,9.82
2023-03-21T09:55:22.025Z,9.72
2023-03-21T09:58:00.180Z,9.64
2023-03-21T10:00:34.598Z,9.57
2023-03-21T10:03:09.588Z,9.56
2023-03-21T10:05:44.149Z,9.54
2023-03-21T10:08:21.877Z,9.58
2023-03-21T10:10:55.316Z,9.64
2023-03-21T10:13:27.719Z,9.63
2023-03-21T10:15:58.433Z,9.63
2023-03-21T10:18:29.703Z,9.65
2023-03-21T10:20:59.106Z,9.64
2023-03-21T10:23:30.101Z,9.60
2023-03-21T10:26:02.247Z,9.58
2023-03-21T10:31:33.090Z,9.76
2023-03-21T10:34:09.745Z,9.86
2023-03-21T10:36:39.939Z,9.80
2023-03-21T10:39:19.469Z,9.83
2023-03-21T10:41:48.260Z,9.81
2023-03-21T10:44:18.124Z,9.73
2023-03-21T10:46:56.497Z,9.72
2023-03-21T10:49:56.407Z,9.77
2023-03-21T10:52:30.460Z,9.79
2023-03-21T10:55:16.649Z,9.78
2023-03-21T10:57:46.908Z,9.76
2023-03-21T11:00:22.382Z,9.68
2023-03-21T11:02:53.800Z,9.57
2023-03-21T11:05:27.204Z,9.47
2023-03-21T11:08:06.438Z,9.45
2023-03-21T11:10:38.322Z,9.50
2023-03-21T11:13:19.213Z,9.58
2023-03-21T11:15:54.766Z,9.76
2023-03-21T11:18:25.882Z,10.00
2023-03-21T11:20:56.876Z,10.30
2023-03-21T11:23:29.943Z,10.73
2023-03-21T11:26:00.772Z,11.24
2023-03-21T11:28:37.129Z,11.67
2023-03-21T11:31:08.728Z,11.99
2023-03-21T11:33:43.965Z,12.19
2023-03-21T11:36:33.744Z,12.12
2023-03-21T11:39:15.448Z,11.97
2023-03-21T11:41:51.183Z,11.80
2023-03-21T11:44:30.282Z,11.51
2023-03-21T11:47:02.981Z,11.24
2023-03-21T11:49:32.167Z,11.09
2023-03-21T11:52:21.925Z,10.97
2023-03-21T11:55:07.024Z,10.87
2023-03-21T11:57:44.111Z,10.77
2023-03-21T12:00:20.361Z,10.64
2023-03-21T12:03:15.302Z,10.58
2023-03-21T12:05:53.161Z,10.57
2023-03-21T12:08:32.805Z,10.52
2023-03-21T12:11:13.261Z,10.42
2023-03-21T12:13:53.522Z,10.40
2023-03-21T12:16:40.723Z,10.42
2023-03-21T12:19:34.114Z,10.47
2023-03-21T12:22:13.600Z,10.56
2023-03-21T12:24:50.835Z,10.60
2023-03-21T12:27:32.931Z,10.67
2023-03-21T12:30:36.694Z,10.70
2023-03-21T12:33:24.364Z,10.79
2023-03-21T12:36:10.702Z,10.85
2023-03-21T12:38:48.192Z,10.81
2023-03-21T12:41:26.828Z,10.80
2023-03-21T12:44:02.803Z,10.86
2023-03-21T12:46:40.065Z,10.88
2023-03-21T12:49:16.352Z,10.91
2023-03-21T12:51:49.463Z,10.95
2023-03-21T12:54:27.408Z,10.95
2023-03-21T12:57:02.854Z,10.99
2023-03-21T12:59:38.295Z,10.92
2023-03-21T13:02:18.775Z,10.86
2023-03-21T13:04:55.660Z,10.79
2023-03-21T13:07:26.635Z,10.75
2023-03-21T13:09:57.392Z,10.72
2023-03-21T13:12:41.791Z,10.75
2023-03-21T13:15:24.318Z,10.77
2023-03-21T13:18:01.071Z,10.83
2023-03-21T13:20:43.514Z,10.90
2023-03-21T13:23:17.964Z,10.99
2023-03-21T13:25:48.848Z,11.16
2023-03-21T13:28:22.430Z,11.32
2023-03-21T13:30:52.135Z,11.53
2023-03-21T13:33:29.603Z,11.76
2023-03-21T13:36:06.651Z,11.86
2023-03-21T13:38:39.723Z,11.96
2023-03-21T13:41:13.068Z,11.89
2023-03-21T13:43:45.758Z,11.76
2023-03-21T13:46:46.951Z,11.57
2023-03-21T13:49:30.568Z,11.44
2023-03-21T13:52:02.252Z,11.36
2023-03-21T13:54:50.443Z,11.35
2023-03-21T13:57:40.010Z,11.37
2023-03-21T14:00:19.208Z,11.36
2023-03-21T14:03:00.598Z,11.33
2023-03-21T14:05:29.753Z,11.32
2023-03-21T14:08:12.660Z,11.23
2023-03-21T14:10:48.937Z,11.21
2023-03-21T14:13:21.122Z,11.30
2023-03-21T14:15:56.266Z,11.28
2023-03-21T14:18:51.744Z,11.25
2023-03-21T14:21:25.149Z,11.20
2023-03-21T14:24:01.910Z,11.11
2023-03-21T14:26:34.047Z,11.09
2023-03-21T14:29:09.692Z,11.05
2023-03-21T14:31:46.963Z,11.06
2023-03-21T14:34:17.168Z,11.08
2023-03-21T14:36:56.863Z,11.11
2023-03-21T14:39:30.398Z,11.09
2023-03-21T14:42:04.393Z,11.04
2023-03-21T14:44:53.582Z,11.02
2023-03-21T14:47:25.108Z,10.99
2023-03-21T14:49:55.884Z,10.99
2023-03-21T14:52:29.966Z,10.97
2023-03-21T14:54:59.890Z,10.91
2023-03-21T14:57:31.227Z,10.80
2023-03-21T15:00:12.001Z,10.72
2023-03-21T15:02:42.977Z,10.65
2023-03-21T15:05:18.661Z,10.59
2023-03-21T15:07:56.045Z,10.54
2023-03-21T15:10:27.680Z,10.47
2023-03-21T15:12:58.673Z,10.41
2023-03-21T15:15:30.228Z,10.35
2023-03-21T15:18:06.459Z,10.26
2023-03-21T15:20:38.206Z,10.22
2023-03-21T15:23:12.712Z,10.16
2023-03-21T15:25:43.497Z,10.16
2023-03-21T15:28:14.518Z,10.16
2023-03-21T15:30:50.611Z,10.16
2023-03-21T15:33:23.596Z,10.12
2023-03-21T15:35:55.991Z,10.07
2023-03-21T15:38:33.257Z,10.02
2023-03-21T15:41:16.711Z,9.98
2023-03-21T15:43:46.882Z,9.93
2023-03-21T15:46:17.574Z,9.85
2023-03-21T15:48:46.760Z,9.76
2023-03-21T15:51:21.534Z,9.71
2023-03-21T15:53:53.891Z,9.65
2023-03-21T15:56:34.225Z,9.59
2023-03-21T15:59:06.041Z,9.50
2023-03-21T16:01:38.428Z,9.44
2023-03-21T16:04:10.507Z,9.36
2023-03-21T16:06:52.249Z,9.27
2023-03-21T16:09:25.690Z,9.21
2023-03-21T16:11:58.341Z,9.15
2023-03-21T16:14:28.039Z,9.08
2023-03-21T16:17:13.861Z,9.01
2023-03-21T16:19:43.842Z,8.93
2023-03-21T16:22:15.364Z,8.87
2023-03-21T16:24:44.648Z,8.81
2023-03-21T16:27:17.161Z,8.76
2023-03-21T16:29:46.518Z,8.68
2023-03-21T16:32:16.935Z,8.61
2023-03-21T16:34:46.176Z,8.55
2023-03-21T16:37:18.238Z,8.47
2023-03-21T16:39:47.274Z,8.37
2023-03-21T16:42:16.160Z,8.26
2023-03-21T16:44:45.183Z,8.15
2023-03-21T16:47:18.040Z,8.01
2023-03-21T16:49:47.785Z,7.86
2023-03-21T16:52:17.661Z,7.78
2023-03-21T16:54:46.591Z,7.69
2023-03-21T16:57:27.661Z,7.59
2023-03-21T16:59:57.058Z,7.50
2023-03-21T17:02:26.957Z,7.40
2023-03-21T17:04:57.719Z,7.29
2023-03-21T17:07:27.003Z,7.21
2023-03-21T17:09:57.485Z,7.11
2023-03-21T17:12:26.586Z,6.93
2023-03-21T17:14:55.795Z,6.75
2023-03-21T17:17:24.923Z,6.56
2023-03-21T17:19:54.004Z,6.37
2023-03-21T17:22:22.929Z,6.23
2023-03-21T17:24:52.039Z,6.11
2023-03-21T17:27:20.924Z,6.00
2023-03-21T17:29:50.259Z,5.90
2023-03-21T17:32:19.755Z,5.81
2023-03-21T17:34:52.580Z,5.74
2023-03-21T17:37:25.485Z,5.69
2023-03-21T17:39:55.500Z,5.64
2023-03-21T17:42:24.502Z,5.62
2023-03-21T17:44:53.750Z,5.55
2023-03-21T17:47:25.107Z,5.50
2023-03-21T17:49:54.452Z,5.41
2023-03-21T17:52:24.712Z,5.29
2023-03-21T17:54:53.891Z,5.17
2023-03-21T17:57:22.792Z,5.12
2023-03-21T17:59:52.501Z,5.08
2023-03-21T18:02:21.403Z,5.04
2023-03-21T18:04:50.430Z,4.95
2023-03-21T18:07:28.691Z,4.88
2023-03-21T18:10:14.289Z,4.77
2023-03-21T18:12:43.581Z,4.69
2023-03-21T18:15:17.046Z,4.67
2023-03-21T18:17:46.195Z,4.63
2023-03-21T18:20:19.896Z,4.60
2023-03-21T18:22:52.094Z,4.53
2023-03-21T18:25:21.572Z,4.44
2023-03-21T18:28:09.949Z,4.33
2023-03-21T18:31:00.950Z,4.16
2023-03-21T18:33:31.360Z,4.07
2023-03-21T18:36:07.016Z,4.00
2023-03-21T18:38:37.408Z,3.96
2023-03-21T18:41:08.112Z,3.90
2023-03-21T18:46:30.304Z,3.78
2023-03-21T18:49:27.052Z,3.74
2023-03-21T18:51:51.990Z,3.71
2023-03-21T18:54:22.909Z,3.71
2023-03-21T18:59:40.929Z,3.73
2023-03-21T19:02:16.325Z,3.73
2023-03-21T19:04:46.001Z,3.71
2023-03-21T19:07:15.167Z,3.70
2023-03-21T19:10:05.853Z,3.67
2023-03-21T19:12:33.611Z,3.62
2023-03-21T19:15:05.445Z,3.59
2023-03-21T19:20:23.880Z,3.46
2023-03-21T19:22:53.596Z,3.39
2023-03-21T19:25:22.630Z,3.33
2023-03-21T19:27:52.320Z,3.30
2023-03-21T19:30:21.551Z,3.24
2023-03-21T19:32:50.386Z,3.17
2023-03-21T19:35:19.609Z,3.12
2023-03-21T19:37:48.410Z,3.09
2023-03-21T19:40:21.032Z,3.05
2023-03-21T19:42:50.155Z,2.98
2023-03-21T19:45:22.210Z,2.92
2023-03-21T19:47:51.096Z,2.89
2023-03-21T19:50:57.910Z,2.88
2023-03-21T19:53:09.207Z,2.85
2023-03-21T19:55:38.309Z,2.82
2023-03-21T19:58:12.094Z,2.80
2023-03-21T20:00:41.227Z,2.78
2023-03-21T20:03:10.432Z,2.76
2023-03-21T20:05:41.842Z,2.72
2023-03-21T20:08:12.765Z,2.70
2023-03-21T20:10:44.949Z,2.66
2023-03-21T20:13:14.422Z,2.62
2023-03-21T20:15:48.097Z,2.60
2023-03-21T20:18:16.573Z,2.58
2023-03-21T20:20:45.492Z,2.55
2023-03-21T20:23:17.153Z,2.52
2023-03-21T20:25:47.701Z,2.51
2023-03-21T20:28:25.496Z,2.47
2023-03-21T20:30:57.794Z,2.44
2023-03-21T20:33:27.819Z,2.39
2023-03-21T20:38:51.454Z,2.26
2023-03-21T20:41:20.949Z,2.23
2023-03-21T20:46:43.113Z,2.12
2023-03-21T20:49:13.191Z,2.05
2023-03-21T20:52:44.646Z,2.03
2023-03-21T20:54:31.746Z,1.99
2023-03-21T20:57:04.196Z,1.99
2023-03-21T20:59:33.980Z,1.99
2023-03-21T21:02:05.107Z,1.95
2023-03-21T21:04:49.826Z,1.93
2023-03-21T21:07:27.120Z,1.92
2023-03-21T21:09:56.264Z,1.89
2023-03-21T21:12:26.973Z,1.87
2023-03-21T21:14:55.995Z,1.83
2023-03-21T21:20:17.235Z,1.75
2023-03-21T21:22:59.436Z,1.74
2023-03-21T21:25:33.137Z,1.70
2023-03-21T21:28:02.358Z,1.65
2023-03-21T21:30:33.686Z,1.62
2023-03-21T21:33:02.448Z,1.59
2023-03-21T21:35:33.076Z,1.56
2023-03-21T21:38:01.877Z,1.53
2023-03-21T21:40:31.158Z,1.53
2023-03-21T21:43:03.427Z,1.51
2023-03-21T21:45:32.369Z,1.50
2023-03-21T21:48:01.601Z,1.49
2023-03-21T21:50:30.627Z,1.47
2023-03-21T21:53:03.068Z,1.44
2023-03-21T21:55:33.523Z,1.40
2023-03-21T21:58:03.417Z,1.37
2023-03-21T22:00:33.972Z,1.33
2023-03-21T22:03:02.806Z,1.26
2023-03-21T22:05:32.089Z,1.21
2023-03-21T22:08:00.856Z,1.20
2023-03-21T22:10:32.439Z,1.18
2023-03-21T22:13:01.437Z,1.16
2023-03-21T22:15:30.395Z,1.14
2023-03-21T22:17:59.260Z,1.14
2023-03-21T22:20:28.049Z,1.11
2023-03-21T22:22:59.003Z,1.08
2023-03-21T22:25:28.511Z,1.05
2023-03-21T22:27:57.293Z,1.04
2023-03-21T22:30:26.538Z,1.03
2023-03-21T22:33:08.460Z,0.99
2023-03-21T22:35:37.765Z,0.97
2023-03-21T22:38:08.218Z,0.95
2023-03-21T22:40:37.506Z,0.94
2023-03-21T22:43:08.298Z,0.92
2023-03-21T22:45:37.505Z,0.89
2023-03-21T22:48:08.985Z,0.86
2023-03-21T22:50:38.399Z,0.83
2023-03-21T22:53:07.818Z,0.81
2023-03-21T22:55:37.838Z,0.79
2023-03-21T22:58:07.086Z,0.74
2023-03-21T23:00:38.530Z,0.71
2023-03-21T23:03:08.238Z,0.69
2023-03-21T23:05:40.633Z,0.66
2023-03-21T23:08:09.887Z,0.65
2023-03-21T23:10:39.478Z,0.62
2023-03-21T23:13:08.979Z,0.60
2023-03-21T23:15:39.482Z,0.59
2023-03-21T23:18:09.369Z,0.58
2023-03-21T23:20:40.568Z,0.56
2023-03-21T23:23:09.704Z,0.53
2023-03-21T23:25:42.319Z,0.48
2023-03-21T23:28:12.052Z,0.43
2023-03-21T23:30:41.333Z,0.39
2023-03-21T23:33:13.864Z,0.36
2023-03-21T23:35:43.121Z,0.36
2023-03-21T23:38:12.574Z,0.36
2023-03-21T23:40:41.619Z,0.35
2023-03-21T23:43:10.856Z,0.35
2023-03-21T23:45:41.471Z,0.34
2023-03-21T23:48:10.620Z,0.30
2023-03-21T23:50:41.332Z,0.24
2023-03-21T23:53:10.285Z,0.23
2023-03-21T23:55:41.359Z,0.21
2023-03-21T23:58:13.944Z,0.20
